sensor_id;sensor_type;location;lat;lon;timestamp;temperature;humidity
3684;DHT22;1858;48.716;9.648;2023-02-01T00:01:39;5.10;99.90
3684;DHT22;1858;48.716;9.648;2023-02-01T00:04:07;5.10;99.90
3684;DHT22;1858;48.716;9.648;2023-02-01T00:06:35;5.10;99.90
3684;DHT22;1858;48.716;9.648;2023-02-01T00:09:04;5.20;99.90
3684;DHT22;1858;48.716;9.648;2023-02-01T00:11:33;5.20;99.90
3684;DHT22;1858;48.716;9.648;2023-02-01T00:14:20;5.10;99.90
3684;DHT22;1858;48.716;9.648;2023-02-01T00:16:49;5.20;99.90
3684;DHT22;1858;48.716;9.648;2023-02-01T00:19:18;5.20;99.90
3684;DHT22;1858;48.716;9.648;2023-02-01T00:21:47;5.20;99.90
3684;DHT22;1858;48.716;9.648;2023-02-01T00:24:15;5.20;99.90
3684;DHT22;1858;48.716;9.648;2023-02-01T00:26:45;5.20;99.90
3684;DHT22;1858;48.716;9.648;2023-02-01T00:29:16;5.20;99.90
3684;DHT22;1858;48.716;9.648;2023-02-01T00:32:04;5.20;99.90
3684;DHT22;1858;48.716;9.648;2023-02-01T00:34:32;5.20;99.90
3684;DHT22;1858;48.716;9.648;2023-02-01T00:37:01;5.10;99.90
3684;DHT22;1858;48.716;9.648;2023-02-01T00:39:29;5.10;99.90
3684;DHT22;1858;48.716;9.648;2023-02-01T00:42:17;5.10;99.90
3684;DHT22;1858;48.716;9.648;2023-02-01T00:45:05;5.20;99.90
3684;DHT22;1858;48.716;9.648;2023-02-01T00:47:52;5.20;99.90
3684;DHT22;1858;48.716;9.648;2023-02-01T00:50:21;5.20;99.90
3684;DHT22;1858;48.716;9.648;2023-02-01T00:52:49;5.10;99.90
3684;DHT22;1858;48.716;9.648;2023-02-01T00:55:18;5.00;99.90
3684;DHT22;1858;48.716;9.648;2023-02-01T00:58:06;5.10;99.90
3684;DHT22;1858;48.716;9.648;2023-02-01T01:00:36;5.20;99.90
3684;DHT22;1858;48.716;9.648;2023-02-01T01:03:04;5.10;99.90
3684;DHT22;1858;48.716;9.648;2023-02-01T01:05:48;5.00;99.90
3684;DHT22;1858;48.716;9.648;2023-02-01T01:08:17;5.00;99.90
3684;DHT22;1858;48.716;9.648;2023-02-01T01:11:11;5.00;99.90
3684;DHT22;1858;48.716;9.648;2023-02-01T01:13:35;5.00;99.90
3684;DHT22;1858;48.716;9.648;2023-02-01T01:16:05;5.00;99.90
3684;DHT22;1858;48.716;9.648;2023-02-01T01:18:34;5.00;99.90
3684;DHT22;1858;48.716;9.648;2023-02-01T01:21:05;5.00;99.90
3684;DHT22;1858;48.716;9.648;2023-02-01T01:23:53;5.00;99.90
3684;DHT22;1858;48.716;9.648;2023-02-01T01:26:23;5.00;99.90
3684;DHT22;1858;48.716;9.648;2023-02-01T01:28:52;5.00;99.90
3684;DHT22;1858;48.716;9.648;2023-02-01T01:31:21;5.00;99.90
3684;DHT22;1858;48.716;9.648;2023-02-01T01:33:52;4.90;99.90
3684;DHT22;1858;48.716;9.648;2023-02-01T01:36:40;4.90;99.90
3684;DHT22;1858;48.716;9.648;2023-02-01T01:39:08;4.90;99.90
3684;DHT22;1858;48.716;9.648;2023-02-01T01:41:36;4.90;99.90
3684;DHT22;1858;48.716;9.648;2023-02-01T01:44:53;4.90;99.90
3684;DHT22;1858;48.716;9.648;2023-02-01T01:49:26;4.90;99.90
3684;DHT22;1858;48.716;9.648;2023-02-01T01:51:57;4.90;99.90
3684;DHT22;1858;48.716;9.648;2023-02-01T01:54:37;4.80;99.90
3684;DHT22;1858;48.716;9.648;2023-02-01T01:57:04;4.80;99.90
3684;DHT22;1858;48.716;9.648;2023-02-01T01:59:32;4.80;99.90
3684;DHT22;1858;48.716;9.648;2023-02-01T02:02:02;4.70;99.90
3684;DHT22;1858;48.716;9.648;2023-02-01T02:04:32;4.70;99.90
3684;DHT22;1858;48.716;9.648;2023-02-01T02:07:04;4.80;99.90
3684;DHT22;1858;48.716;9.648;2023-02-01T02:09:53;4.70;99.90
3684;DHT22;1858;48.716;9.648;2023-02-01T02:12:42;4.70;99.90
3684;DHT22;1858;48.716;9.648;2023-02-01T02:15:13;4.70;99.90
3684;DHT22;1858;48.716;9.648;2023-02-01T02:17:55;4.70;99.90
3684;DHT22;1858;48.716;9.648;2023-02-01T02:34:34;4.90;99.90
3684;DHT22;1858;48.716;9.648;2023-02-01T02:37:42;4.90;99.90
3684;DHT22;1858;48.716;9.648;2023-02-01T02:40:27;4.90;99.90
3684;DHT22;1858;48.716;9.648;2023-02-01T02:46:12;4.90;99.90
3684;DHT22;1858;48.716;9.648;2023-02-01T02:48:59;4.90;99.90
3684;DHT22;1858;48.716;9.648;2023-02-01T02:52:09;4.90;99.90
3684;DHT22;1858;48.716;9.648;2023-02-01T02:55:14;5.00;99.90
3684;DHT22;1858;48.716;9.648;2023-02-01T02:57:44;5.00;99.90
3684;DHT22;1858;48.716;9.648;2023-02-01T03:00:33;5.00;99.90
3684;DHT22;1858;48.716;9.648;2023-02-01T03:03:19;5.00;99.90
3684;DHT22;1858;48.716;9.648;2023-02-01T03:06:12;5.00;99.90
3684;DHT22;1858;48.716;9.648;2023-02-01T03:08:40;5.00;99.90
3684;DHT22;1858;48.716;9.648;2023-02-01T03:11:15;5.10;99.90
3684;DHT22;1858;48.716;9.648;2023-02-01T03:13:56;5.10;99.90
3684;DHT22;1858;48.716;9.648;2023-02-01T03:19:32;5.20;99.90
3684;DHT22;1858;48.716;9.648;2023-02-01T03:22:08;5.20;99.90
3684;DHT22;1858;48.716;9.648;2023-02-01T03:24:39;5.30;99.90
3684;DHT22;1858;48.716;9.648;2023-02-01T03:32:49;5.30;99.90
3684;DHT22;1858;48.716;9.648;2023-02-01T03:35:32;5.30;99.90
3684;DHT22;1858;48.716;9.648;2023-02-01T03:38:30;5.30;99.90
3684;DHT22;1858;48.716;9.648;2023-02-01T03:41:24;5.30;99.90
3684;DHT22;1858;48.716;9.648;2023-02-01T03:43:54;5.40;99.90
3684;DHT22;1858;48.716;9.648;2023-02-01T03:46:27;5.40;99.90
3684;DHT22;1858;48.716;9.648;2023-02-01T03:48:55;5.30;99.90
3684;DHT22;1858;48.716;9.648;2023-02-01T03:51:25;5.30;99.90
3684;DHT22;1858;48.716;9.648;2023-02-01T03:56:45;5.20;99.90
3684;DHT22;1858;48.716;9.648;2023-02-01T03:59:27;5.20;99.90
3684;DHT22;1858;48.716;9.648;2023-02-01T04:01:55;5.20;99.90
3684;DHT22;1858;48.716;9.648;2023-02-01T04:04:24;5.10;99.90
3684;DHT22;1858;48.716;9.648;2023-02-01T04:06:52;5.10;99.90
3684;DHT22;1858;48.716;9.648;2023-02-01T04:09:20;5.10;99.90
3684;DHT22;1858;48.716;9.648;2023-02-01T04:11:49;5.10;99.90
3684;DHT22;1858;48.716;9.648;2023-02-01T04:14:17;5.20;99.90
3684;DHT22;1858;48.716;9.648;2023-02-01T04:17:05;5.30;99.90
3684;DHT22;1858;48.716;9.648;2023-02-01T04:19:53;5.20;99.90
3684;DHT22;1858;48.716;9.648;2023-02-01T04:22:21;5.10;99.90
3684;DHT22;1858;48.716;9.648;2023-02-01T04:24:49;5.10;99.90
3684;DHT22;1858;48.716;9.648;2023-02-01T04:27:18;5.10;99.90
3684;DHT22;1858;48.716;9.648;2023-02-01T04:29:46;5.20;99.90
3684;DHT22;1858;48.716;9.648;2023-02-01T04:32:17;5.20;99.90
3684;DHT22;1858;48.716;9.648;2023-02-01T04:34:47;5.10;99.90
3684;DHT22;1858;48.716;9.648;2023-02-01T04:37:15;5.20;99.90
3684;DHT22;1858;48.716;9.648;2023-02-01T04:39:43;5.30;99.90
3684;DHT22;1858;48.716;9.648;2023-02-01T04:42:12;5.20;99.90
3684;DHT22;1858;48.716;9.648;2023-02-01T04:44:59;5.20;99.90
3684;DHT22;1858;48.716;9.648;2023-02-01T04:47:28;5.20;99.90
3684;DHT22;1858;48.716;9.648;2023-02-01T04:49:56;5.20;99.90
3684;DHT22;1858;48.716;9.648;2023-02-01T04:52:25;5.10;99.90
3684;DHT22;1858;48.716;9.648;2023-02-01T04:54:54;5.10;99.90
3684;DHT22;1858;48.716;9.648;2023-02-01T04:57:25;5.10;99.90
3684;DHT22;1858;48.716;9.648;2023-02-01T04:59:54;5.10;99.90
3684;DHT22;1858;48.716;9.648;2023-02-01T05:04:50;5.10;99.90
3684;DHT22;1858;48.716;9.648;2023-02-01T05:07:38;5.00;99.90
3684;DHT22;1858;48.716;9.648;2023-02-01T05:10:07;5.00;99.90
3684;DHT22;1858;48.716;9.648;2023-02-01T05:12:36;4.90;99.90
3684;DHT22;1858;48.716;9.648;2023-02-01T05:15:42;4.80;99.90
3684;DHT22;1858;48.716;9.648;2023-02-01T05:18:10;4.70;99.90
3684;DHT22;1858;48.716;9.648;2023-02-01T05:20:58;4.70;99.90
3684;DHT22;1858;48.716;9.648;2023-02-01T05:23:26;4.80;99.90
3684;DHT22;1858;48.716;9.648;2023-02-01T05:25:59;4.80;99.90
3684;DHT22;1858;48.716;9.648;2023-02-01T05:28:28;4.90;99.90
3684;DHT22;1858;48.716;9.648;2023-02-01T05:30:56;5.00;99.90
3684;DHT22;1858;48.716;9.648;2023-02-01T05:33:25;5.00;99.90
3684;DHT22;1858;48.716;9.648;2023-02-01T05:35:53;5.00;99.90
3684;DHT22;1858;48.716;9.648;2023-02-01T05:38:22;5.10;99.90
3684;DHT22;1858;48.716;9.648;2023-02-01T05:40:50;5.10;99.90
3684;DHT22;1858;48.716;9.648;2023-02-01T05:43:18;5.10;99.90
3684;DHT22;1858;48.716;9.648;2023-02-01T05:45:47;5.10;99.90
3684;DHT22;1858;48.716;9.648;2023-02-01T05:48:15;5.10;99.90
3684;DHT22;1858;48.716;9.648;2023-02-01T05:50:44;5.10;99.90
3684;DHT22;1858;48.716;9.648;2023-02-01T05:53:13;5.10;99.90
3684;DHT22;1858;48.716;9.648;2023-02-01T05:55:42;5.10;99.90
3684;DHT22;1858;48.716;9.648;2023-02-01T05:58:10;5.10;99.90
3684;DHT22;1858;48.716;9.648;2023-02-01T06:00:39;5.20;99.90
3684;DHT22;1858;48.716;9.648;2023-02-01T06:03:08;5.30;99.90
3684;DHT22;1858;48.716;9.648;2023-02-01T06:05:37;5.30;99.90
3684;DHT22;1858;48.716;9.648;2023-02-01T06:08:05;5.30;99.90
3684;DHT22;1858;48.716;9.648;2023-02-01T06:10:34;5.30;99.90
3684;DHT22;1858;48.716;9.648;2023-02-01T06:13:03;5.30;99.90
3684;DHT22;1858;48.716;9.648;2023-02-01T06:15:32;5.30;99.90
3684;DHT22;1858;48.716;9.648;2023-02-01T06:18:00;5.30;99.90
3684;DHT22;1858;48.716;9.648;2023-02-01T06:20:29;5.40;99.90
3684;DHT22;1858;48.716;9.648;2023-02-01T06:22:57;5.30;99.90
3684;DHT22;1858;48.716;9.648;2023-02-01T06:25:26;5.30;99.90
3684;DHT22;1858;48.716;9.648;2023-02-01T06:27:54;5.30;99.90
3684;DHT22;1858;48.716;9.648;2023-02-01T06:30:22;5.30;99.90
3684;DHT22;1858;48.716;9.648;2023-02-01T06:32:51;5.30;99.90
3684;DHT22;1858;48.716;9.648;2023-02-01T06:35:22;5.20;99.90
3684;DHT22;1858;48.716;9.648;2023-02-01T06:40:40;5.20;99.90
3684;DHT22;1858;48.716;9.648;2023-02-01T06:43:09;5.10;99.90
3684;DHT22;1858;48.716;9.648;2023-02-01T06:45:37;5.00;99.90
3684;DHT22;1858;48.716;9.648;2023-02-01T06:48:06;5.10;99.90
3684;DHT22;1858;48.716;9.648;2023-02-01T06:50:34;5.00;99.90
3684;DHT22;1858;48.716;9.648;2023-02-01T06:53:03;5.00;99.90
3684;DHT22;1858;48.716;9.648;2023-02-01T06:55:31;5.10;99.90
3684;DHT22;1858;48.716;9.648;2023-02-01T06:58:19;5.10;99.90
3684;DHT22;1858;48.716;9.648;2023-02-01T07:00:47;5.10;99.90
3684;DHT22;1858;48.716;9.648;2023-02-01T07:06:05;5.10;99.90
3684;DHT22;1858;48.716;9.648;2023-02-01T07:08:36;5.20;99.90
3684;DHT22;1858;48.716;9.648;2023-02-01T07:13:55;5.30;99.90
3684;DHT22;1858;48.716;9.648;2023-02-01T07:16:23;5.40;99.90
3684;DHT22;1858;48.716;9.648;2023-02-01T07:18:52;5.40;99.90
3684;DHT22;1858;48.716;9.648;2023-02-01T07:21:21;5.50;99.90
3684;DHT22;1858;48.716;9.648;2023-02-01T07:24:09;5.50;99.90
3684;DHT22;1858;48.716;9.648;2023-02-01T07:26:37;5.50;99.90
3684;DHT22;1858;48.716;9.648;2023-02-01T07:29:05;5.40;99.90
3684;DHT22;1858;48.716;9.648;2023-02-01T07:31:34;5.50;99.90
3684;DHT22;1858;48.716;9.648;2023-02-01T07:34:22;5.50;99.90
3684;DHT22;1858;48.716;9.648;2023-02-01T07:36:50;5.50;99.90
3684;DHT22;1858;48.716;9.648;2023-02-01T07:39:38;5.50;99.90
3684;DHT22;1858;48.716;9.648;2023-02-01T07:42:06;5.50;99.90
3684;DHT22;1858;48.716;9.648;2023-02-01T07:44:34;5.50;99.90
3684;DHT22;1858;48.716;9.648;2023-02-01T07:47:03;5.50;99.90
3684;DHT22;1858;48.716;9.648;2023-02-01T07:49:31;5.50;99.90
3684;DHT22;1858;48.716;9.648;2023-02-01T07:51:59;5.60;99.90
3684;DHT22;1858;48.716;9.648;2023-02-01T07:54:28;5.50;99.90
3684;DHT22;1858;48.716;9.648;2023-02-01T07:56:56;5.60;99.90
3684;DHT22;1858;48.716;9.648;2023-02-01T07:59:44;5.60;99.90
3684;DHT22;1858;48.716;9.648;2023-02-01T08:02:31;5.60;99.90
3684;DHT22;1858;48.716;9.648;2023-02-01T08:04:59;5.50;99.90
3684;DHT22;1858;48.716;9.648;2023-02-01T08:07:28;5.60;99.90
3684;DHT22;1858;48.716;9.648;2023-02-01T08:09:56;5.60;99.90
3684;DHT22;1858;48.716;9.648;2023-02-01T08:12:25;5.60;99.90
3684;DHT22;1858;48.716;9.648;2023-02-01T08:14:54;5.60;99.90
3684;DHT22;1858;48.716;9.648;2023-02-01T08:17:23;5.60;99.90
3684;DHT22;1858;48.716;9.648;2023-02-01T08:19:53;5.60;99.90
3684;DHT22;1858;48.716;9.648;2023-02-01T08:22:22;5.60;99.90
3684;DHT22;1858;48.716;9.648;2023-02-01T08:24:50;5.60;99.90
3684;DHT22;1858;48.716;9.648;2023-02-01T08:27:20;5.60;99.90
3684;DHT22;1858;48.716;9.648;2023-02-01T08:29:49;5.60;99.90
3684;DHT22;1858;48.716;9.648;2023-02-01T08:32:18;5.60;99.90
3684;DHT22;1858;48.716;9.648;2023-02-01T08:34:46;5.60;99.90
3684;DHT22;1858;48.716;9.648;2023-02-01T08:37:14;5.70;99.90
3684;DHT22;1858;48.716;9.648;2023-02-01T08:39:43;5.70;99.90
3684;DHT22;1858;48.716;9.648;2023-02-01T08:42:12;5.70;99.90
3684;DHT22;1858;48.716;9.648;2023-02-01T08:44:58;5.80;99.90
3684;DHT22;1858;48.716;9.648;2023-02-01T08:47:27;5.80;99.90
3684;DHT22;1858;48.716;9.648;2023-02-01T08:49:55;5.90;99.90
3684;DHT22;1858;48.716;9.648;2023-02-01T08:52:24;5.90;99.90
3684;DHT22;1858;48.716;9.648;2023-02-01T08:54:52;6.10;99.90
3684;DHT22;1858;48.716;9.648;2023-02-01T08:57:20;6.20;99.90
3684;DHT22;1858;48.716;9.648;2023-02-01T08:59:49;6.20;99.90
3684;DHT22;1858;48.716;9.648;2023-02-01T09:02:17;6.30;99.90
3684;DHT22;1858;48.716;9.648;2023-02-01T09:04:46;6.30;99.90
3684;DHT22;1858;48.716;9.648;2023-02-01T09:07:14;6.20;99.90
3684;DHT22;1858;48.716;9.648;2023-02-01T09:09:44;6.30;99.90
3684;DHT22;1858;48.716;9.648;2023-02-01T09:12:27;6.30;99.90
3684;DHT22;1858;48.716;9.648;2023-02-01T09:14:57;6.50;99.90
3684;DHT22;1858;48.716;9.648;2023-02-01T09:17:28;6.50;83.80
3684;DHT22;1858;48.716;9.648;2023-02-01T09:19:57;6.60;72.40
3684;DHT22;1858;48.716;9.648;2023-02-01T09:22:25;6.60;57.90
3684;DHT22;1858;48.716;9.648;2023-02-01T09:25:13;6.80;43.00
3684;DHT22;1858;48.716;9.648;2023-02-01T09:27:42;6.90;27.20
3684;DHT22;1858;48.716;9.648;2023-02-01T09:30:29;7.00;4.30
3684;DHT22;1858;48.716;9.648;2023-02-01T09:33:17;6.90;4.30
3684;DHT22;1858;48.716;9.648;2023-02-01T09:35:45;6.80;1.00
3684;DHT22;1858;48.716;9.648;2023-02-01T09:38:14;6.80;1.00
3684;DHT22;1858;48.716;9.648;2023-02-01T09:40:44;6.80;1.00
3684;DHT22;1858;48.716;9.648;2023-02-01T09:43:29;6.80;1.00
3684;DHT22;1858;48.716;9.648;2023-02-01T09:46:22;6.70;1.00
3684;DHT22;1858;48.716;9.648;2023-02-01T09:49:30;6.70;1.00
3684;DHT22;1858;48.716;9.648;2023-02-01T09:52:02;6.60;1.00
3684;DHT22;1858;48.716;9.648;2023-02-01T09:54:40;6.50;1.00
3684;DHT22;1858;48.716;9.648;2023-02-01T09:57:19;6.40;1.00
3684;DHT22;1858;48.716;9.648;2023-02-01T10:03:01;6.20;19.60
3684;DHT22;1858;48.716;9.648;2023-02-01T10:14:39;6.10;39.40
3684;DHT22;1858;48.716;9.648;2023-02-01T10:20:07;6.30;28.50
3684;DHT22;1858;48.716;9.648;2023-02-01T10:25:40;6.40;9.80
3684;DHT22;1858;48.716;9.648;2023-02-01T10:28:25;6.50;7.20
3684;DHT22;1858;48.716;9.648;2023-02-01T10:30:57;6.50;2.20
3684;DHT22;1858;48.716;9.648;2023-02-01T10:33:41;6.50;1.00
3684;DHT22;1858;48.716;9.648;2023-02-01T10:39:03;6.50;1.00
3684;DHT22;1858;48.716;9.648;2023-02-01T10:41:35;6.50;1.00
3684;DHT22;1858;48.716;9.648;2023-02-01T10:44:12;6.60;1.00
3684;DHT22;1858;48.716;9.648;2023-02-01T10:46:41;6.60;1.00
3684;DHT22;1858;48.716;9.648;2023-02-01T10:52:02;6.80;1.00
3684;DHT22;1858;48.716;9.648;2023-02-01T10:54:35;6.80;1.00
3684;DHT22;1858;48.716;9.648;2023-02-01T10:57:11;6.70;1.00
3684;DHT22;1858;48.716;9.648;2023-02-01T10:59:39;6.80;1.00
3684;DHT22;1858;48.716;9.648;2023-02-01T11:05:02;7.00;1.00
3684;DHT22;1858;48.716;9.648;2023-02-01T11:07:31;7.00;1.00
3684;DHT22;1858;48.716;9.648;2023-02-01T11:10:38;7.10;1.00
3684;DHT22;1858;48.716;9.648;2023-02-01T11:13:16;7.20;1.00
3684;DHT22;1858;48.716;9.648;2023-02-01T11:15:46;7.20;1.00
3684;DHT22;1858;48.716;9.648;2023-02-01T11:18:24;7.10;1.00
3684;DHT22;1858;48.716;9.648;2023-02-01T11:21:10;7.10;1.00
3684;DHT22;1858;48.716;9.648;2023-02-01T11:23:43;7.00;1.00
3684;DHT22;1858;48.716;9.648;2023-02-01T11:26:21;7.00;1.00
3684;DHT22;1858;48.716;9.648;2023-02-01T11:28:54;7.00;1.00
3684;DHT22;1858;48.716;9.648;2023-02-01T11:32:00;7.00;1.00
3684;DHT22;1858;48.716;9.648;2023-02-01T11:34:36;7.00;1.00
3684;DHT22;1858;48.716;9.648;2023-02-01T11:39:58;7.10;1.00
3684;DHT22;1858;48.716;9.648;2023-02-01T11:42:28;7.10;1.00
3684;DHT22;1858;48.716;9.648;2023-02-01T11:45:25;7.10;1.00
3684;DHT22;1858;48.716;9.648;2023-02-01T11:47:46;7.20;1.00
3684;DHT22;1858;48.716;9.648;2023-02-01T11:50:44;7.20;1.00
3684;DHT22;1858;48.716;9.648;2023-02-01T11:59:23;7.20;1.00
3684;DHT22;1858;48.716;9.648;2023-02-01T12:10:36;7.10;1.00
3684;DHT22;1858;48.716;9.648;2023-02-01T12:16:11;7.20;1.00
3684;DHT22;1858;48.716;9.648;2023-02-01T12:18:50;7.30;1.00
3684;DHT22;1858;48.716;9.648;2023-02-01T12:37:47;7.10;1.00
3684;DHT22;1858;48.716;9.648;2023-02-01T12:40:22;7.10;1.00
3684;DHT22;1858;48.716;9.648;2023-02-01T12:43:03;7.00;1.00
3684;DHT22;1858;48.716;9.648;2023-02-01T12:45:36;7.00;1.00
3684;DHT22;1858;48.716;9.648;2023-02-01T12:48:31;7.00;1.00
3684;DHT22;1858;48.716;9.648;2023-02-01T12:51:02;7.00;1.00
3684;DHT22;1858;48.716;9.648;2023-02-01T12:53:42;6.90;1.00
3684;DHT22;1858;48.716;9.648;2023-02-01T12:56:06;6.90;1.00
3684;DHT22;1858;48.716;9.648;2023-02-01T12:58:50;7.00;1.00
3684;DHT22;1858;48.716;9.648;2023-02-01T13:01:25;7.00;1.00
3684;DHT22;1858;48.716;9.648;2023-02-01T13:04:24;6.90;1.00
3684;DHT22;1858;48.716;9.648;2023-02-01T13:07:11;6.90;1.00
3684;DHT22;1858;48.716;9.648;2023-02-01T13:10:11;6.90;1.00
3684;DHT22;1858;48.716;9.648;2023-02-01T13:12:38;6.70;1.00
3684;DHT22;1858;48.716;9.648;2023-02-01T13:15:12;6.70;1.00
3684;DHT22;1858;48.716;9.648;2023-02-01T13:17:41;6.70;1.00
3684;DHT22;1858;48.716;9.648;2023-02-01T13:20:20;6.80;1.00
3684;DHT22;1858;48.716;9.648;2023-02-01T13:22:50;6.90;1.00
3684;DHT22;1858;48.716;9.648;2023-02-01T13:25:40;6.80;1.00
3684;DHT22;1858;48.716;9.648;2023-02-01T13:42:54;6.90;1.00
3684;DHT22;1858;48.716;9.648;2023-02-01T13:45:44;6.90;1.00
3684;DHT22;1858;48.716;9.648;2023-02-01T13:53:56;6.80;1.00
3684;DHT22;1858;48.716;9.648;2023-02-01T14:05:11;6.90;1.00
3684;DHT22;1858;48.716;9.648;2023-02-01T14:10:57;6.90;1.00
3684;DHT22;1858;48.716;9.648;2023-02-01T14:13:45;6.90;1.00
3684;DHT22;1858;48.716;9.648;2023-02-01T14:16:15;6.80;1.00
3684;DHT22;1858;48.716;9.648;2023-02-01T14:18:48;6.80;1.00
3684;DHT22;1858;48.716;9.648;2023-02-01T14:21:46;6.90;1.00
3684;DHT22;1858;48.716;9.648;2023-02-01T14:24:24;6.90;1.00
3684;DHT22;1858;48.716;9.648;2023-02-01T14:26:54;6.80;1.00
3684;DHT22;1858;48.716;9.648;2023-02-01T14:32:19;6.70;1.00
3684;DHT22;1858;48.716;9.648;2023-02-01T14:34:53;6.60;1.00
3684;DHT22;1858;48.716;9.648;2023-02-01T14:37:43;6.50;1.00
3684;DHT22;1858;48.716;9.648;2023-02-01T14:40:19;6.60;1.00
3684;DHT22;1858;48.716;9.648;2023-02-01T14:42:48;6.50;1.00
3684;DHT22;1858;48.716;9.648;2023-02-01T14:50:41;6.50;1.00
3684;DHT22;1858;48.716;9.648;2023-02-01T14:58:35;6.60;1.00
3684;DHT22;1858;48.716;9.648;2023-02-01T15:01:17;6.60;1.00
3684;DHT22;1858;48.716;9.648;2023-02-01T15:06:48;6.60;1.00
3684;DHT22;1858;48.716;9.648;2023-02-01T15:09:19;6.50;1.00
3684;DHT22;1858;48.716;9.648;2023-02-01T15:12:04;6.50;1.00
3684;DHT22;1858;48.716;9.648;2023-02-01T15:14:43;6.50;1.00
3684;DHT22;1858;48.716;9.648;2023-02-01T15:17:20;6.50;1.00
3684;DHT22;1858;48.716;9.648;2023-02-01T15:20:00;6.50;1.00
3684;DHT22;1858;48.716;9.648;2023-02-01T15:22:31;6.50;1.00
3684;DHT22;1858;48.716;9.648;2023-02-01T15:25:00;6.40;1.00
3684;DHT22;1858;48.716;9.648;2023-02-01T15:27:30;6.30;1.00
3684;DHT22;1858;48.716;9.648;2023-02-01T15:30:16;6.30;1.00
3684;DHT22;1858;48.716;9.648;2023-02-01T15:32:39;6.30;1.00
3684;DHT22;1858;48.716;9.648;2023-02-01T15:35:37;6.30;1.00
3684;DHT22;1858;48.716;9.648;2023-02-01T15:38:30;6.30;1.00
3684;DHT22;1858;48.716;9.648;2023-02-01T15:41:17;6.30;1.00
3684;DHT22;1858;48.716;9.648;2023-02-01T15:46:33;6.30;1.00
3684;DHT22;1858;48.716;9.648;2023-02-01T15:49:02;6.20;1.00
3684;DHT22;1858;48.716;9.648;2023-02-01T15:51:50;6.20;1.00
3684;DHT22;1858;48.716;9.648;2023-02-01T15:54:28;6.20;1.00
3684;DHT22;1858;48.716;9.648;2023-02-01T15:57:00;6.20;1.00
3684;DHT22;1858;48.716;9.648;2023-02-01T15:59:48;6.30;1.00
3684;DHT22;1858;48.716;9.648;2023-02-01T16:02:37;6.30;1.00
3684;DHT22;1858;48.716;9.648;2023-02-01T16:08:22;6.20;1.00
3684;DHT22;1858;48.716;9.648;2023-02-01T16:13:39;6.10;1.00
3684;DHT22;1858;48.716;9.648;2023-02-01T16:16:09;6.10;1.00
3684;DHT22;1858;48.716;9.648;2023-02-01T16:18:41;6.10;1.00
3684;DHT22;1858;48.716;9.648;2023-02-01T16:21:09;6.10;1.00
3684;DHT22;1858;48.716;9.648;2023-02-01T16:23:39;6.10;1.00
3684;DHT22;1858;48.716;9.648;2023-02-01T16:26:07;6.20;1.00
3684;DHT22;1858;48.716;9.648;2023-02-01T16:28:55;6.20;1.00
3684;DHT22;1858;48.716;9.648;2023-02-01T16:31:26;6.30;1.00
3684;DHT22;1858;48.716;9.648;2023-02-01T16:33:55;6.20;1.00
3684;DHT22;1858;48.716;9.648;2023-02-01T16:36:24;6.20;1.00
3684;DHT22;1858;48.716;9.648;2023-02-01T16:38:52;6.20;1.00
3684;DHT22;1858;48.716;9.648;2023-02-01T16:41:23;6.20;1.00
3684;DHT22;1858;48.716;9.648;2023-02-01T16:43:53;6.20;1.00
3684;DHT22;1858;48.716;9.648;2023-02-01T16:46:25;6.20;1.00
3684;DHT22;1858;48.716;9.648;2023-02-01T16:48:58;6.20;1.00
3684;DHT22;1858;48.716;9.648;2023-02-01T16:51:29;6.20;1.00
3684;DHT22;1858;48.716;9.648;2023-02-01T16:54:00;6.20;1.00
3684;DHT22;1858;48.716;9.648;2023-02-01T16:56:31;6.20;1.00
3684;DHT22;1858;48.716;9.648;2023-02-01T16:59:00;6.10;1.00
3684;DHT22;1858;48.716;9.648;2023-02-01T17:01:29;6.10;1.00
3684;DHT22;1858;48.716;9.648;2023-02-01T17:03:58;6.00;1.00
3684;DHT22;1858;48.716;9.648;2023-02-01T17:06:26;6.10;1.00
3684;DHT22;1858;48.716;9.648;2023-02-01T17:08:57;6.00;1.00
3684;DHT22;1858;48.716;9.648;2023-02-01T17:11:27;6.00;1.00
3684;DHT22;1858;48.716;9.648;2023-02-01T17:14:08;6.00;1.00
3684;DHT22;1858;48.716;9.648;2023-02-01T17:16:50;6.10;1.00
3684;DHT22;1858;48.716;9.648;2023-02-01T17:19:21;6.00;1.00
3684;DHT22;1858;48.716;9.648;2023-02-01T17:21:53;5.90;1.00
3684;DHT22;1858;48.716;9.648;2023-02-01T17:24:25;5.90;1.00
3684;DHT22;1858;48.716;9.648;2023-02-01T17:26:55;5.90;1.00
3684;DHT22;1858;48.716;9.648;2023-02-01T17:29:23;5.80;1.00
3684;DHT22;1858;48.716;9.648;2023-02-01T17:32:16;5.80;1.00
3684;DHT22;1858;48.716;9.648;2023-02-01T17:34:44;5.80;1.00
3684;DHT22;1858;48.716;9.648;2023-02-01T17:37:22;5.80;1.00
3684;DHT22;1858;48.716;9.648;2023-02-01T17:39:49;5.90;1.00
3684;DHT22;1858;48.716;9.648;2023-02-01T17:42:26;6.00;1.00
3684;DHT22;1858;48.716;9.648;2023-02-01T17:45:00;5.90;1.00
3684;DHT22;1858;48.716;9.648;2023-02-01T17:47:26;5.90;1.00
3684;DHT22;1858;48.716;9.648;2023-02-01T17:49:54;5.90;1.00
3684;DHT22;1858;48.716;9.648;2023-02-01T17:52:24;5.90;1.00
3684;DHT22;1858;48.716;9.648;2023-02-01T17:54:52;5.80;1.00
3684;DHT22;1858;48.716;9.648;2023-02-01T17:57:21;5.80;1.00
3684;DHT22;1858;48.716;9.648;2023-02-01T17:59:49;5.90;1.00
3684;DHT22;1858;48.716;9.648;2023-02-01T18:02:20;5.90;1.00
3684;DHT22;1858;48.716;9.648;2023-02-01T18:05:23;6.00;1.00
3684;DHT22;1858;48.716;9.648;2023-02-01T18:07:47;6.00;1.00
3684;DHT22;1858;48.716;9.648;2023-02-01T18:13:06;5.90;1.00
3684;DHT22;1858;48.716;9.648;2023-02-01T18:15:34;5.90;1.00
3684;DHT22;1858;48.716;9.648;2023-02-01T18:18:03;6.00;1.00
3684;DHT22;1858;48.716;9.648;2023-02-01T18:20:31;5.80;1.00
3684;DHT22;1858;48.716;9.648;2023-02-01T18:23:02;5.90;1.00
3684;DHT22;1858;48.716;9.648;2023-02-01T18:25:31;5.90;1.00
3684;DHT22;1858;48.716;9.648;2023-02-01T18:39:45;5.90;1.00
3684;DHT22;1858;48.716;9.648;2023-02-01T18:42:14;6.00;1.00
3684;DHT22;1858;48.716;9.648;2023-02-01T18:44:42;5.90;1.00
3684;DHT22;1858;48.716;9.648;2023-02-01T18:47:30;6.00;1.00
3684;DHT22;1858;48.716;9.648;2023-02-01T18:50:02;5.90;1.00
3684;DHT22;1858;48.716;9.648;2023-02-01T18:52:53;5.90;1.00
3684;DHT22;1858;48.716;9.648;2023-02-01T18:55:41;6.00;1.00
3684;DHT22;1858;48.716;9.648;2023-02-01T18:58:13;6.00;1.00
3684;DHT22;1858;48.716;9.648;2023-02-01T19:00:44;5.90;1.00
3684;DHT22;1858;48.716;9.648;2023-02-01T19:03:32;6.00;1.00
3684;DHT22;1858;48.716;9.648;2023-02-01T19:06:02;6.00;1.00
3684;DHT22;1858;48.716;9.648;2023-02-01T19:08:34;6.00;1.00
3684;DHT22;1858;48.716;9.648;2023-02-01T19:11:24;6.00;1.00
3684;DHT22;1858;48.716;9.648;2023-02-01T19:14:12;6.00;1.00
3684;DHT22;1858;48.716;9.648;2023-02-01T19:16:40;6.00;1.00
3684;DHT22;1858;48.716;9.648;2023-02-01T19:19:09;6.10;1.00
3684;DHT22;1858;48.716;9.648;2023-02-01T19:21:37;6.10;1.00
3684;DHT22;1858;48.716;9.648;2023-02-01T19:24:05;6.00;1.00
3684;DHT22;1858;48.716;9.648;2023-02-01T19:26:34;6.00;1.00
3684;DHT22;1858;48.716;9.648;2023-02-01T19:29:02;6.00;1.00
3684;DHT22;1858;48.716;9.648;2023-02-01T19:31:31;6.00;1.00
3684;DHT22;1858;48.716;9.648;2023-02-01T19:34:00;6.00;1.00
3684;DHT22;1858;48.716;9.648;2023-02-01T19:36:28;6.00;1.00
3684;DHT22;1858;48.716;9.648;2023-02-01T19:38:56;6.10;1.00
3684;DHT22;1858;48.716;9.648;2023-02-01T19:41:25;6.00;1.00
3684;DHT22;1858;48.716;9.648;2023-02-01T19:43:54;6.00;1.00
3684;DHT22;1858;48.716;9.648;2023-02-01T19:46:22;6.10;1.00
3684;DHT22;1858;48.716;9.648;2023-02-01T19:51:46;6.10;1.00
3684;DHT22;1858;48.716;9.648;2023-02-01T19:54:15;6.10;1.00
3684;DHT22;1858;48.716;9.648;2023-02-01T19:57:26;6.10;1.00
3684;DHT22;1858;48.716;9.648;2023-02-01T19:59:56;6.10;1.00
3684;DHT22;1858;48.716;9.648;2023-02-01T20:02:25;6.10;1.00
3684;DHT22;1858;48.716;9.648;2023-02-01T20:04:55;6.20;1.00
3684;DHT22;1858;48.716;9.648;2023-02-01T20:07:23;6.10;1.00
3684;DHT22;1858;48.716;9.648;2023-02-01T20:09:52;6.00;1.00
3684;DHT22;1858;48.716;9.648;2023-02-01T20:12:20;6.10;1.00
3684;DHT22;1858;48.716;9.648;2023-02-01T20:14:48;6.00;1.00